Monday, September 16, 2019, 8:12 AM EDT
Back to Local

KCON, Concord, Concord Municipal Airport

Location: Concord, NH, United States Lat: 43.195
Local Time: 8:12 AM EDT (12:12 GMT) Lon: -71.501
Time Zone: US/Eastern Elev: 344 ft

Show me the last for .
Show Coded

Time T Td Feel RH Dir Speed Gust Alt SLP Vis Weather Sky Remarks
2019-09-16 07:51 56 45 - 66 290° 5 - 30.09 30.09 10 CLR 6-hr Min Temp (8am): 55.0°F
6-hr Max Temp (8am): 62.1°F
2019-09-16 06:51 55 45 - 68 320° 10 17 30.07 30.06 10 CLR None
2019-09-16 05:51 55 47 - 74 310° 7 - 30.06 30.05 10 CLR None
2019-09-16 04:51 56 49 - 77 310° 9 - 30.05 30.05 10 CLR None
2019-09-16 03:51 57 50 - 77 330° 8 - 30.05 30.05 10 CLR None
2019-09-16 02:51 60 50 - 69 330° 8 - 30.04 30.03 10 FEW050 None
2019-09-16 01:51 62 51 - 67 340° 3 - 30.05 30.05 10 BKN042 OVC075 6-hr Min Temp (2am): 57.9°F
6-hr Max Temp (2am): 66.0°F
2019-09-16 00:51 62 52 - 69 330° 5 - 30.04 30.04 10 BKN046 OVC080 24-hr Min Temp (1am): 48.9°F
24-hr Max Temp (1am): 78.1°F
2019-09-15 23:51 64 53 - 67 330° 6 - 30.04 30.03 10 OVC047 None
2019-09-15 22:51 61 54 - 77 - Calm - 30.04 30.03 10 OVC050 None
2019-09-15 21:51 59 53 - 80 80° 5 - 30.03 30.03 10 SCT055 None
2019-09-15 20:51 63 53 - 70 250° 6 - 30.03 30.02 10 CLR None
2019-09-15 19:51 66 53 - 63 220° 3 - 30.03 30.02 10 CLR 6-hr Min Temp (8pm): 64.9°F
6-hr Max Temp (8pm): 78.1°F
2019-09-15 18:51 70 51 - 51 270° 5 - 30.02 30.02 10 SCT100 BKN120 None
2019-09-15 17:51 72 51 76 47 270° 7 - 30.03 30.03 10 CLR None
2019-09-15 16:51 76 50 77 40 280° 10 - 30.02 30.02 10 CLR None
2019-09-15 15:51 77 50 - 38 290° 8 - 30.02 30.02 10 CLR None
2019-09-15 14:51 75 50 77 41 290° 10 - 30.04 30.04 10 CLR None
2019-09-15 13:51 77 51 78 40 270° 12 - 30.05 30.05 10 CLR 6-hr Min Temp (2pm): 59.0°F
6-hr Max Temp (2pm): 77.0°F
2019-09-15 12:51 74 50 76 42 270° 10 - 30.08 30.07 10 CLR None
2019-09-15 11:51 74 52 77 46 300° 7 - 30.10 30.09 10 CLR None
2019-09-15 10:51 71 53 76 53 310° 8 - 30.11 30.10 10 CLR None
2019-09-15 09:51 68 55 - 63 270° 9 - 30.12 30.11 10 CLR None
2019-09-15 08:51 65 58 - 78 - Calm - 30.12 30.12 10 CLR None

Support USWX by starting your Amazon purchase here.